sensor_id;sensor_type;location;lat;lon;timestamp;P1;durP1;ratioP1;P2;durP2;ratioP2
25810;SDS011;13645;52.460;13.910;2022-07-18T00:00:38;4.75;;;2.50;;
25810;SDS011;13645;52.460;13.910;2022-07-18T00:03:05;6.38;;;2.58;;
25810;SDS011;13645;52.460;13.910;2022-07-18T00:05:31;4.93;;;2.50;;
25810;SDS011;13645;52.460;13.910;2022-07-18T00:07:58;6.93;;;2.90;;
25810;SDS011;13645;52.460;13.910;2022-07-18T00:10:25;7.90;;;2.63;;
25810;SDS011;13645;52.460;13.910;2022-07-18T00:12:52;6.15;;;2.78;;
25810;SDS011;13645;52.460;13.910;2022-07-18T00:15:19;5.07;;;2.67;;
25810;SDS011;13645;52.460;13.910;2022-07-18T00:17:45;5.50;;;2.60;;
25810;SDS011;13645;52.460;13.910;2022-07-18T00:20:12;4.50;;;2.63;;
25810;SDS011;13645;52.460;13.910;2022-07-18T00:22:39;4.65;;;2.30;;
25810;SDS011;13645;52.460;13.910;2022-07-18T00:25:06;5.43;;;2.80;;
25810;SDS011;13645;52.460;13.910;2022-07-18T00:27:33;2.65;;;2.38;;
25810;SDS011;13645;52.460;13.910;2022-07-18T00:29:59;5.57;;;2.78;;
25810;SDS011;13645;52.460;13.910;2022-07-18T00:32:26;4.88;;;2.80;;
25810;SDS011;13645;52.460;13.910;2022-07-18T00:34:53;3.25;;;2.85;;
25810;SDS011;13645;52.460;13.910;2022-07-18T00:37:20;6.68;;;2.47;;
25810;SDS011;13645;52.460;13.910;2022-07-18T00:39:47;5.95;;;2.63;;
25810;SDS011;13645;52.460;13.910;2022-07-18T00:42:14;5.20;;;2.42;;
25810;SDS011;13645;52.460;13.910;2022-07-18T00:44:41;6.35;;;2.70;;
25810;SDS011;13645;52.460;13.910;2022-07-18T00:47:07;4.90;;;2.58;;
25810;SDS011;13645;52.460;13.910;2022-07-18T00:49:34;7.95;;;2.58;;
25810;SDS011;13645;52.460;13.910;2022-07-18T00:52:01;6.40;;;2.90;;
25810;SDS011;13645;52.460;13.910;2022-07-18T00:54:28;7.57;;;2.78;;
25810;SDS011;13645;52.460;13.910;2022-07-18T00:56:57;6.32;;;2.47;;
25810;SDS011;13645;52.460;13.910;2022-07-18T00:59:24;6.07;;;2.70;;
25810;SDS011;13645;52.460;13.910;2022-07-18T01:02:12;6.00;;;2.85;;
25810;SDS011;13645;52.460;13.910;2022-07-18T01:04:38;5.13;;;2.83;;
25810;SDS011;13645;52.460;13.910;2022-07-18T01:07:05;8.00;;;3.03;;
25810;SDS011;13645;52.460;13.910;2022-07-18T01:09:32;4.50;;;2.75;;
25810;SDS011;13645;52.460;13.910;2022-07-18T01:11:59;5.03;;;2.83;;
25810;SDS011;13645;52.460;13.910;2022-07-18T01:14:27;6.35;;;3.28;;
25810;SDS011;13645;52.460;13.910;2022-07-18T01:16:54;7.47;;;3.10;;
25810;SDS011;13645;52.460;13.910;2022-07-18T01:19:21;6.82;;;2.72;;
25810;SDS011;13645;52.460;13.910;2022-07-18T01:21:47;4.95;;;2.80;;
25810;SDS011;13645;52.460;13.910;2022-07-18T01:24:14;4.85;;;2.65;;
25810;SDS011;13645;52.460;13.910;2022-07-18T01:26:41;7.13;;;3.00;;
25810;SDS011;13645;52.460;13.910;2022-07-18T01:29:08;7.63;;;3.13;;
25810;SDS011;13645;52.460;13.910;2022-07-18T01:31:34;3.85;;;2.60;;
25810;SDS011;13645;52.460;13.910;2022-07-18T01:34:01;6.00;;;2.90;;
25810;SDS011;13645;52.460;13.910;2022-07-18T01:36:28;6.15;;;2.97;;
25810;SDS011;13645;52.460;13.910;2022-07-18T01:38:56;9.02;;;3.65;;
25810;SDS011;13645;52.460;13.910;2022-07-18T01:41:25;4.85;;;2.55;;
25810;SDS011;13645;52.460;13.910;2022-07-18T01:43:52;6.72;;;3.10;;
25810;SDS011;13645;52.460;13.910;2022-07-18T01:46:19;4.30;;;2.58;;
25810;SDS011;13645;52.460;13.910;2022-07-18T01:48:45;7.95;;;3.17;;
25810;SDS011;13645;52.460;13.910;2022-07-18T01:51:12;5.15;;;3.00;;
25810;SDS011;13645;52.460;13.910;2022-07-18T01:53:40;5.78;;;3.00;;
25810;SDS011;13645;52.460;13.910;2022-07-18T01:56:08;9.02;;;3.25;;
25810;SDS011;13645;52.460;13.910;2022-07-18T01:58:38;4.95;;;2.75;;
25810;SDS011;13645;52.460;13.910;2022-07-18T02:01:04;9.27;;;3.13;;
25810;SDS011;13645;52.460;13.910;2022-07-18T02:03:31;8.35;;;3.05;;
25810;SDS011;13645;52.460;13.910;2022-07-18T02:05:58;7.28;;;2.88;;
25810;SDS011;13645;52.460;13.910;2022-07-18T02:08:25;5.40;;;3.10;;
25810;SDS011;13645;52.460;13.910;2022-07-18T02:10:52;9.70;;;3.17;;
25810;SDS011;13645;52.460;13.910;2022-07-18T02:13:18;8.40;;;3.35;;
25810;SDS011;13645;52.460;13.910;2022-07-18T02:15:46;4.45;;;2.78;;
25810;SDS011;13645;52.460;13.910;2022-07-18T02:18:13;5.57;;;2.70;;
25810;SDS011;13645;52.460;13.910;2022-07-18T02:20:40;6.05;;;2.80;;
25810;SDS011;13645;52.460;13.910;2022-07-18T02:23:07;8.45;;;2.85;;
25810;SDS011;13645;52.460;13.910;2022-07-18T02:25:34;4.00;;;2.53;;
25810;SDS011;13645;52.460;13.910;2022-07-18T02:28:01;5.00;;;2.83;;
25810;SDS011;13645;52.460;13.910;2022-07-18T02:30:27;4.40;;;2.50;;
25810;SDS011;13645;52.460;13.910;2022-07-18T02:32:54;4.28;;;2.80;;
25810;SDS011;13645;52.460;13.910;2022-07-18T02:35:21;6.90;;;2.85;;
25810;SDS011;13645;52.460;13.910;2022-07-18T02:37:51;4.03;;;2.65;;
25810;SDS011;13645;52.460;13.910;2022-07-18T02:40:18;5.45;;;2.83;;
25810;SDS011;13645;52.460;13.910;2022-07-18T02:42:45;8.63;;;2.70;;
25810;SDS011;13645;52.460;13.910;2022-07-18T02:45:11;6.47;;;2.80;;
25810;SDS011;13645;52.460;13.910;2022-07-18T02:47:38;7.30;;;2.88;;
25810;SDS011;13645;52.460;13.910;2022-07-18T02:50:06;5.30;;;2.90;;
25810;SDS011;13645;52.460;13.910;2022-07-18T02:52:33;4.63;;;3.20;;
25810;SDS011;13645;52.460;13.910;2022-07-18T02:55:00;4.50;;;3.20;;
25810;SDS011;13645;52.460;13.910;2022-07-18T02:57:27;3.85;;;2.85;;
25810;SDS011;13645;52.460;13.910;2022-07-18T02:59:54;5.75;;;3.22;;
25810;SDS011;13645;52.460;13.910;2022-07-18T03:02:21;5.07;;;3.20;;
25810;SDS011;13645;52.460;13.910;2022-07-18T03:04:48;4.43;;;2.92;;
25810;SDS011;13645;52.460;13.910;2022-07-18T03:07:14;7.40;;;3.08;;
25810;SDS011;13645;52.460;13.910;2022-07-18T03:09:41;4.25;;;3.00;;
25810;SDS011;13645;52.460;13.910;2022-07-18T03:12:09;4.68;;;3.20;;
25810;SDS011;13645;52.460;13.910;2022-07-18T03:14:35;5.28;;;3.47;;
25810;SDS011;13645;52.460;13.910;2022-07-18T03:17:02;6.97;;;3.00;;
25810;SDS011;13645;52.460;13.910;2022-07-18T03:19:29;5.65;;;3.42;;
25810;SDS011;13645;52.460;13.910;2022-07-18T03:21:56;5.57;;;3.20;;
25810;SDS011;13645;52.460;13.910;2022-07-18T03:24:23;5.75;;;3.38;;
25810;SDS011;13645;52.460;13.910;2022-07-18T03:26:50;5.13;;;3.17;;
25810;SDS011;13645;52.460;13.910;2022-07-18T03:29:17;5.35;;;3.38;;
25810;SDS011;13645;52.460;13.910;2022-07-18T03:31:43;8.10;;;3.17;;
25810;SDS011;13645;52.460;13.910;2022-07-18T03:34:10;4.07;;;3.10;;
25810;SDS011;13645;52.460;13.910;2022-07-18T03:36:37;4.13;;;3.15;;
25810;SDS011;13645;52.460;13.910;2022-07-18T03:39:04;9.48;;;3.28;;
25810;SDS011;13645;52.460;13.910;2022-07-18T03:41:32;9.27;;;3.50;;
25810;SDS011;13645;52.460;13.910;2022-07-18T03:43:59;5.60;;;3.20;;
25810;SDS011;13645;52.460;13.910;2022-07-18T03:46:26;6.35;;;3.30;;
25810;SDS011;13645;52.460;13.910;2022-07-18T03:48:53;7.50;;;3.33;;
25810;SDS011;13645;52.460;13.910;2022-07-18T03:51:19;9.70;;;3.20;;
25810;SDS011;13645;52.460;13.910;2022-07-18T03:53:46;4.13;;;3.40;;
25810;SDS011;13645;52.460;13.910;2022-07-18T03:56:13;4.57;;;3.10;;
25810;SDS011;13645;52.460;13.910;2022-07-18T03:58:40;5.45;;;3.72;;
25810;SDS011;13645;52.460;13.910;2022-07-18T04:01:07;9.48;;;3.88;;
25810;SDS011;13645;52.460;13.910;2022-07-18T04:03:34;4.68;;;3.50;;
25810;SDS011;13645;52.460;13.910;2022-07-18T04:06:01;5.45;;;3.65;;
25810;SDS011;13645;52.460;13.910;2022-07-18T04:08:27;5.78;;;3.50;;
25810;SDS011;13645;52.460;13.910;2022-07-18T04:10:54;7.30;;;3.53;;
25810;SDS011;13645;52.460;13.910;2022-07-18T04:13:21;10.18;;;3.38;;
25810;SDS011;13645;52.460;13.910;2022-07-18T04:15:48;7.60;;;3.58;;
25810;SDS011;13645;52.460;13.910;2022-07-18T04:18:14;6.80;;;3.65;;
25810;SDS011;13645;52.460;13.910;2022-07-18T04:20:41;4.35;;;3.15;;
25810;SDS011;13645;52.460;13.910;2022-07-18T04:23:09;7.25;;;3.60;;
25810;SDS011;13645;52.460;13.910;2022-07-18T04:25:39;4.85;;;3.10;;
25810;SDS011;13645;52.460;13.910;2022-07-18T04:28:09;5.82;;;3.35;;
25810;SDS011;13645;52.460;13.910;2022-07-18T04:30:37;5.75;;;3.60;;
25810;SDS011;13645;52.460;13.910;2022-07-18T04:33:05;5.72;;;3.28;;
25810;SDS011;13645;52.460;13.910;2022-07-18T04:35:33;7.57;;;3.60;;
25810;SDS011;13645;52.460;13.910;2022-07-18T04:38:04;7.63;;;3.08;;
25810;SDS011;13645;52.460;13.910;2022-07-18T04:40:31;5.00;;;3.03;;
25810;SDS011;13645;52.460;13.910;2022-07-18T04:42:58;5.00;;;3.50;;
25810;SDS011;13645;52.460;13.910;2022-07-18T04:45:24;7.90;;;3.70;;
25810;SDS011;13645;52.460;13.910;2022-07-18T04:47:52;4.00;;;2.83;;
25810;SDS011;13645;52.460;13.910;2022-07-18T04:50:21;10.05;;;3.42;;
25810;SDS011;13645;52.460;13.910;2022-07-18T04:52:48;8.52;;;3.10;;
25810;SDS011;13645;52.460;13.910;2022-07-18T04:55:17;6.97;;;3.00;;
25810;SDS011;13645;52.460;13.910;2022-07-18T04:57:46;11.23;;;3.42;;
25810;SDS011;13645;52.460;13.910;2022-07-18T05:00:14;6.90;;;3.10;;
25810;SDS011;13645;52.460;13.910;2022-07-18T05:02:44;5.75;;;3.15;;
25810;SDS011;13645;52.460;13.910;2022-07-18T05:05:16;8.82;;;2.97;;
25810;SDS011;13645;52.460;13.910;2022-07-18T05:07:44;8.93;;;3.33;;
25810;SDS011;13645;52.460;13.910;2022-07-18T05:10:12;8.93;;;3.20;;
25810;SDS011;13645;52.460;13.910;2022-07-18T05:12:42;4.85;;;2.78;;
25810;SDS011;13645;52.460;13.910;2022-07-18T05:15:10;5.25;;;3.13;;
25810;SDS011;13645;52.460;13.910;2022-07-18T05:17:38;5.00;;;3.08;;
25810;SDS011;13645;52.460;13.910;2022-07-18T05:20:06;4.72;;;2.63;;
25810;SDS011;13645;52.460;13.910;2022-07-18T05:22:36;4.90;;;2.97;;
25810;SDS011;13645;52.460;13.910;2022-07-18T05:25:04;6.75;;;2.80;;
25810;SDS011;13645;52.460;13.910;2022-07-18T05:27:32;5.53;;;2.85;;
25810;SDS011;13645;52.460;13.910;2022-07-18T05:29:59;5.80;;;2.97;;
25810;SDS011;13645;52.460;13.910;2022-07-18T05:32:26;11.25;;;3.03;;
25810;SDS011;13645;52.460;13.910;2022-07-18T05:34:53;3.80;;;2.38;;
25810;SDS011;13645;52.460;13.910;2022-07-18T05:37:20;6.97;;;3.00;;
25810;SDS011;13645;52.460;13.910;2022-07-18T05:39:47;5.15;;;2.75;;
25810;SDS011;13645;52.460;13.910;2022-07-18T05:42:14;6.53;;;2.78;;
25810;SDS011;13645;52.460;13.910;2022-07-18T05:44:41;4.45;;;2.83;;
25810;SDS011;13645;52.460;13.910;2022-07-18T05:47:08;6.50;;;2.92;;
25810;SDS011;13645;52.460;13.910;2022-07-18T05:49:35;5.82;;;2.70;;
25810;SDS011;13645;52.460;13.910;2022-07-18T05:52:01;7.45;;;2.80;;
25810;SDS011;13645;52.460;13.910;2022-07-18T05:54:28;6.85;;;2.55;;
25810;SDS011;13645;52.460;13.910;2022-07-18T05:56:55;5.05;;;2.63;;
25810;SDS011;13645;52.460;13.910;2022-07-18T05:59:22;4.78;;;2.50;;
25810;SDS011;13645;52.460;13.910;2022-07-18T06:01:49;6.03;;;2.38;;
25810;SDS011;13645;52.460;13.910;2022-07-18T06:04:16;7.50;;;2.80;;
25810;SDS011;13645;52.460;13.910;2022-07-18T06:06:42;4.93;;;2.50;;
25810;SDS011;13645;52.460;13.910;2022-07-18T06:09:10;11.52;;;2.85;;
25810;SDS011;13645;52.460;13.910;2022-07-18T06:11:38;4.93;;;2.47;;
25810;SDS011;13645;52.460;13.910;2022-07-18T06:14:06;8.60;;;2.70;;
25810;SDS011;13645;52.460;13.910;2022-07-18T06:16:32;6.20;;;2.80;;
25810;SDS011;13645;52.460;13.910;2022-07-18T06:18:59;4.47;;;2.38;;
25810;SDS011;13645;52.460;13.910;2022-07-18T06:21:26;6.22;;;2.05;;
25810;SDS011;13645;52.460;13.910;2022-07-18T06:23:53;5.88;;;2.55;;
25810;SDS011;13645;52.460;13.910;2022-07-18T06:26:20;4.65;;;2.40;;
25810;SDS011;13645;52.460;13.910;2022-07-18T06:28:47;4.55;;;1.98;;
25810;SDS011;13645;52.460;13.910;2022-07-18T06:31:14;6.68;;;2.05;;
25810;SDS011;13645;52.460;13.910;2022-07-18T06:33:42;4.97;;;1.83;;
25810;SDS011;13645;52.460;13.910;2022-07-18T06:36:09;5.45;;;2.22;;
25810;SDS011;13645;52.460;13.910;2022-07-18T06:38:38;5.90;;;1.88;;
25810;SDS011;13645;52.460;13.910;2022-07-18T06:41:05;3.88;;;2.00;;
25810;SDS011;13645;52.460;13.910;2022-07-18T06:43:33;9.80;;;2.13;;
25810;SDS011;13645;52.460;13.910;2022-07-18T06:46:00;7.90;;;2.15;;
25810;SDS011;13645;52.460;13.910;2022-07-18T06:48:26;4.60;;;1.73;;
25810;SDS011;13645;52.460;13.910;2022-07-18T06:50:59;4.97;;;2.00;;
25810;SDS011;13645;52.460;13.910;2022-07-18T06:53:28;7.55;;;2.00;;
25810;SDS011;13645;52.460;13.910;2022-07-18T06:55:55;4.95;;;2.03;;
25810;SDS011;13645;52.460;13.910;2022-07-18T06:58:22;4.40;;;1.70;;
25810;SDS011;13645;52.460;13.910;2022-07-18T07:00:49;7.22;;;1.80;;
25810;SDS011;13645;52.460;13.910;2022-07-18T07:03:17;7.75;;;2.08;;
25810;SDS011;13645;52.460;13.910;2022-07-18T07:05:44;3.80;;;1.70;;
25810;SDS011;13645;52.460;13.910;2022-07-18T07:08:10;5.10;;;1.92;;
25810;SDS011;13645;52.460;13.910;2022-07-18T07:10:39;7.28;;;1.90;;
25810;SDS011;13645;52.460;13.910;2022-07-18T07:13:06;3.92;;;1.80;;
25810;SDS011;13645;52.460;13.910;2022-07-18T07:15:37;8.43;;;1.98;;
25810;SDS011;13645;52.460;13.910;2022-07-18T07:18:06;4.57;;;1.65;;
25810;SDS011;13645;52.460;13.910;2022-07-18T07:20:32;6.80;;;1.50;;
25810;SDS011;13645;52.460;13.910;2022-07-18T07:22:59;6.57;;;1.95;;
25810;SDS011;13645;52.460;13.910;2022-07-18T07:25:31;3.40;;;1.55;;
25810;SDS011;13645;52.460;13.910;2022-07-18T07:27:57;5.95;;;1.88;;
25810;SDS011;13645;52.460;13.910;2022-07-18T07:30:25;5.43;;;1.60;;
25810;SDS011;13645;52.460;13.910;2022-07-18T07:32:51;3.88;;;1.40;;
25810;SDS011;13645;52.460;13.910;2022-07-18T07:35:19;6.57;;;1.75;;
25810;SDS011;13645;52.460;13.910;2022-07-18T07:37:47;4.07;;;1.40;;
25810;SDS011;13645;52.460;13.910;2022-07-18T07:40:18;4.03;;;1.40;;
25810;SDS011;13645;52.460;13.910;2022-07-18T07:42:46;5.53;;;1.90;;
25810;SDS011;13645;52.460;13.910;2022-07-18T07:45:13;4.05;;;1.33;;
25810;SDS011;13645;52.460;13.910;2022-07-18T07:47:40;4.43;;;1.42;;
25810;SDS011;13645;52.460;13.910;2022-07-18T07:50:08;5.88;;;1.60;;
25810;SDS011;13645;52.460;13.910;2022-07-18T07:52:35;4.70;;;1.70;;
25810;SDS011;13645;52.460;13.910;2022-07-18T07:55:04;6.88;;;1.80;;
25810;SDS011;13645;52.460;13.910;2022-07-18T07:57:31;4.05;;;1.77;;
25810;SDS011;13645;52.460;13.910;2022-07-18T08:00:00;3.33;;;1.45;;
25810;SDS011;13645;52.460;13.910;2022-07-18T08:02:29;4.40;;;1.80;;
25810;SDS011;13645;52.460;13.910;2022-07-18T08:04:55;6.95;;;1.63;;
25810;SDS011;13645;52.460;13.910;2022-07-18T08:07:22;8.82;;;1.42;;
25810;SDS011;13645;52.460;13.910;2022-07-18T08:09:49;6.10;;;1.80;;
25810;SDS011;13645;52.460;13.910;2022-07-18T08:12:16;4.28;;;1.80;;
25810;SDS011;13645;52.460;13.910;2022-07-18T08:14:43;4.32;;;1.52;;
25810;SDS011;13645;52.460;13.910;2022-07-18T08:17:10;8.80;;;1.83;;
25810;SDS011;13645;52.460;13.910;2022-07-18T08:19:37;4.15;;;1.63;;
25810;SDS011;13645;52.460;13.910;2022-07-18T08:22:03;10.00;;;1.50;;
25810;SDS011;13645;52.460;13.910;2022-07-18T08:24:32;7.40;;;1.42;;
25810;SDS011;13645;52.460;13.910;2022-07-18T08:26:59;4.35;;;1.55;;
25810;SDS011;13645;52.460;13.910;2022-07-18T08:29:26;6.28;;;1.50;;
25810;SDS011;13645;52.460;13.910;2022-07-18T08:32:13;4.85;;;1.90;;
25810;SDS011;13645;52.460;13.910;2022-07-18T08:34:39;3.95;;;1.60;;
25810;SDS011;13645;52.460;13.910;2022-07-18T08:37:06;9.13;;;2.20;;
25810;SDS011;13645;52.460;13.910;2022-07-18T08:39:33;6.15;;;2.25;;
25810;SDS011;13645;52.460;13.910;2022-07-18T08:42:00;9.25;;;1.80;;
25810;SDS011;13645;52.460;13.910;2022-07-18T08:44:27;13.55;;;1.80;;
25810;SDS011;13645;52.460;13.910;2022-07-18T08:46:54;4.88;;;1.75;;
25810;SDS011;13645;52.460;13.910;2022-07-18T08:49:23;5.45;;;1.58;;
25810;SDS011;13645;52.460;13.910;2022-07-18T08:51:50;3.72;;;1.70;;
25810;SDS011;13645;52.460;13.910;2022-07-18T08:54:17;6.85;;;2.08;;
25810;SDS011;13645;52.460;13.910;2022-07-18T08:56:48;6.70;;;1.98;;
25810;SDS011;13645;52.460;13.910;2022-07-18T08:59:14;5.70;;;1.75;;
25810;SDS011;13645;52.460;13.910;2022-07-18T09:01:41;6.07;;;1.70;;
25810;SDS011;13645;52.460;13.910;2022-07-18T09:04:08;8.52;;;1.92;;
25810;SDS011;13645;52.460;13.910;2022-07-18T09:06:42;6.32;;;2.05;;
25810;SDS011;13645;52.460;13.910;2022-07-18T09:09:13;10.00;;;3.03;;
25810;SDS011;13645;52.460;13.910;2022-07-18T09:11:51;6.53;;;2.60;;
25810;SDS011;13645;52.460;13.910;2022-07-18T09:14:41;5.80;;;2.85;;
25810;SDS011;13645;52.460;13.910;2022-07-18T09:17:15;8.77;;;3.05;;
25810;SDS011;13645;52.460;13.910;2022-07-18T09:19:42;9.65;;;2.97;;
25810;SDS011;13645;52.460;13.910;2022-07-18T09:22:23;8.18;;;3.15;;
25810;SDS011;13645;52.460;13.910;2022-07-18T09:27:35;6.40;;;2.90;;
25810;SDS011;13645;52.460;13.910;2022-07-18T09:32:47;5.05;;;2.58;;
25810;SDS011;13645;52.460;13.910;2022-07-18T09:35:32;6.20;;;3.10;;
25810;SDS011;13645;52.460;13.910;2022-07-18T09:38:07;7.10;;;2.55;;
25810;SDS011;13645;52.460;13.910;2022-07-18T09:40:40;5.30;;;2.58;;
25810;SDS011;13645;52.460;13.910;2022-07-18T09:43:09;5.93;;;2.58;;
25810;SDS011;13645;52.460;13.910;2022-07-18T09:45:56;5.50;;;2.70;;
25810;SDS011;13645;52.460;13.910;2022-07-18T09:48:26;10.43;;;3.38;;
25810;SDS011;13645;52.460;13.910;2022-07-18T09:53:31;6.57;;;2.70;;
25810;SDS011;13645;52.460;13.910;2022-07-18T09:56:07;8.23;;;2.72;;
25810;SDS011;13645;52.460;13.910;2022-07-18T09:58:53;6.75;;;2.47;;
25810;SDS011;13645;52.460;13.910;2022-07-18T10:01:21;7.03;;;2.95;;
25810;SDS011;13645;52.460;13.910;2022-07-18T10:03:49;5.47;;;2.70;;
25810;SDS011;13645;52.460;13.910;2022-07-18T10:06:16;6.22;;;2.58;;
25810;SDS011;13645;52.460;13.910;2022-07-18T10:08:44;4.60;;;2.70;;
25810;SDS011;13645;52.460;13.910;2022-07-18T10:11:11;5.38;;;2.80;;
25810;SDS011;13645;52.460;13.910;2022-07-18T10:13:38;6.93;;;3.15;;
25810;SDS011;13645;52.460;13.910;2022-07-18T10:16:05;4.50;;;2.72;;
25810;SDS011;13645;52.460;13.910;2022-07-18T10:18:33;5.50;;;2.78;;
25810;SDS011;13645;52.460;13.910;2022-07-18T10:23:30;7.55;;;3.45;;
25810;SDS011;13645;52.460;13.910;2022-07-18T10:31:40;5.53;;;2.83;;
25810;SDS011;13645;52.460;13.910;2022-07-18T10:34:28;6.95;;;2.63;;
25810;SDS011;13645;52.460;13.910;2022-07-18T10:39:33;8.32;;;2.67;;
25810;SDS011;13645;52.460;13.910;2022-07-18T10:58:14;5.95;;;3.00;;
25810;SDS011;13645;52.460;13.910;2022-07-18T11:00:36;5.18;;;2.53;;
25810;SDS011;13645;52.460;13.910;2022-07-18T11:03:11;4.35;;;2.53;;
25810;SDS011;13645;52.460;13.910;2022-07-18T11:05:49;5.72;;;2.88;;
25810;SDS011;13645;52.460;13.910;2022-07-18T11:08:17;4.82;;;2.60;;
25810;SDS011;13645;52.460;13.910;2022-07-18T11:13:20;6.07;;;2.70;;
25810;SDS011;13645;52.460;13.910;2022-07-18T11:21:18;8.93;;;3.30;;
25810;SDS011;13645;52.460;13.910;2022-07-18T11:24:04;6.40;;;2.80;;
25810;SDS011;13645;52.460;13.910;2022-07-18T11:26:38;6.10;;;2.65;;
25810;SDS011;13645;52.460;13.910;2022-07-18T11:29:10;7.30;;;2.70;;
25810;SDS011;13645;52.460;13.910;2022-07-18T11:31:45;7.32;;;2.67;;
25810;SDS011;13645;52.460;13.910;2022-07-18T11:34:16;13.35;;;3.13;;
25810;SDS011;13645;52.460;13.910;2022-07-18T11:36:45;6.30;;;2.60;;
25810;SDS011;13645;52.460;13.910;2022-07-18T11:39:13;6.45;;;3.00;;
25810;SDS011;13645;52.460;13.910;2022-07-18T11:41:52;8.82;;;3.03;;
25810;SDS011;13645;52.460;13.910;2022-07-18T11:44:19;4.32;;;2.50;;
25810;SDS011;13645;52.460;13.910;2022-07-18T11:47:06;7.30;;;2.95;;
25810;SDS011;13645;52.460;13.910;2022-07-18T11:49:35;6.00;;;2.60;;
25810;SDS011;13645;52.460;13.910;2022-07-18T11:52:03;6.13;;;2.78;;
25810;SDS011;13645;52.460;13.910;2022-07-18T11:54:30;5.45;;;2.70;;
25810;SDS011;13645;52.460;13.910;2022-07-18T11:56:58;6.10;;;2.70;;
25810;SDS011;13645;52.460;13.910;2022-07-18T11:59:36;7.60;;;3.05;;
25810;SDS011;13645;52.460;13.910;2022-07-18T12:02:07;7.47;;;2.78;;
25810;SDS011;13645;52.460;13.910;2022-07-18T12:04:35;2.63;;;2.40;;
25810;SDS011;13645;52.460;13.910;2022-07-18T12:07:18;8.05;;;2.50;;
25810;SDS011;13645;52.460;13.910;2022-07-18T12:09:52;3.90;;;2.20;;
25810;SDS011;13645;52.460;13.910;2022-07-18T12:12:20;7.57;;;2.72;;
25810;SDS011;13645;52.460;13.910;2022-07-18T12:14:52;6.60;;;2.50;;
25810;SDS011;13645;52.460;13.910;2022-07-18T12:17:24;2.75;;;2.13;;
25810;SDS011;13645;52.460;13.910;2022-07-18T12:19:51;6.30;;;2.45;;
25810;SDS011;13645;52.460;13.910;2022-07-18T12:22:18;4.10;;;2.10;;
25810;SDS011;13645;52.460;13.910;2022-07-18T12:24:51;4.82;;;2.40;;
25810;SDS011;13645;52.460;13.910;2022-07-18T12:27:22;5.88;;;2.28;;
25810;SDS011;13645;52.460;13.910;2022-07-18T12:30:06;3.30;;;2.10;;
25810;SDS011;13645;52.460;13.910;2022-07-18T12:32:38;3.42;;;2.35;;
25810;SDS011;13645;52.460;13.910;2022-07-18T12:43:15;4.80;;;2.40;;
25810;SDS011;13645;52.460;13.910;2022-07-18T12:45:48;5.53;;;2.35;;
25810;SDS011;13645;52.460;13.910;2022-07-18T12:48:15;4.03;;;2.63;;
25810;SDS011;13645;52.460;13.910;2022-07-18T12:50:43;6.45;;;2.67;;
25810;SDS011;13645;52.460;13.910;2022-07-18T12:53:10;3.63;;;2.90;;
25810;SDS011;13645;52.460;13.910;2022-07-18T12:55:38;7.55;;;2.70;;
25810;SDS011;13645;52.460;13.910;2022-07-18T12:58:06;6.40;;;2.42;;
25810;SDS011;13645;52.460;13.910;2022-07-18T13:00:33;9.65;;;2.80;;
25810;SDS011;13645;52.460;13.910;2022-07-18T13:03:02;4.10;;;2.83;;
25810;SDS011;13645;52.460;13.910;2022-07-18T13:05:29;7.05;;;2.78;;
25810;SDS011;13645;52.460;13.910;2022-07-18T13:07:57;5.88;;;2.70;;
25810;SDS011;13645;52.460;13.910;2022-07-18T13:10:24;5.57;;;2.78;;
25810;SDS011;13645;52.460;13.910;2022-07-18T13:12:51;7.53;;;2.78;;
25810;SDS011;13645;52.460;13.910;2022-07-18T13:15:18;3.80;;;2.60;;
25810;SDS011;13645;52.460;13.910;2022-07-18T13:17:47;5.75;;;2.67;;
25810;SDS011;13645;52.460;13.910;2022-07-18T13:20:15;6.10;;;2.53;;
25810;SDS011;13645;52.460;13.910;2022-07-18T13:22:42;4.88;;;2.63;;
25810;SDS011;13645;52.460;13.910;2022-07-18T13:25:17;5.28;;;2.60;;
25810;SDS011;13645;52.460;13.910;2022-07-18T13:27:45;5.55;;;2.92;;
25810;SDS011;13645;52.460;13.910;2022-07-18T13:30:12;5.53;;;3.20;;
25810;SDS011;13645;52.460;13.910;2022-07-18T13:32:39;7.57;;;2.55;;
25810;SDS011;13645;52.460;13.910;2022-07-18T13:35:11;5.57;;;2.95;;
25810;SDS011;13645;52.460;13.910;2022-07-18T13:37:38;9.63;;;2.75;;
25810;SDS011;13645;52.460;13.910;2022-07-18T13:40:05;6.15;;;2.90;;
25810;SDS011;13645;52.460;13.910;2022-07-18T13:42:32;8.50;;;3.28;;
25810;SDS011;13645;52.460;13.910;2022-07-18T13:45:00;4.72;;;2.60;;
25810;SDS011;13645;52.460;13.910;2022-07-18T13:47:27;5.80;;;2.80;;
25810;SDS011;13645;52.460;13.910;2022-07-18T13:49:54;6.57;;;2.95;;
25810;SDS011;13645;52.460;13.910;2022-07-18T13:52:20;6.13;;;3.10;;
25810;SDS011;13645;52.460;13.910;2022-07-18T13:54:47;6.88;;;3.05;;
25810;SDS011;13645;52.460;13.910;2022-07-18T13:57:15;12.77;;;6.50;;
25810;SDS011;13645;52.460;13.910;2022-07-18T13:59:42;13.05;;;6.60;;
25810;SDS011;13645;52.460;13.910;2022-07-18T14:02:08;14.07;;;9.70;;
25810;SDS011;13645;52.460;13.910;2022-07-18T14:04:35;18.77;;;13.52;;
25810;SDS011;13645;52.460;13.910;2022-07-18T14:07:22;21.25;;;14.73;;
25810;SDS011;13645;52.460;13.910;2022-07-18T14:09:49;8.52;;;4.35;;
25810;SDS011;13645;52.460;13.910;2022-07-18T14:12:20;10.57;;;5.45;;
25810;SDS011;13645;52.460;13.910;2022-07-18T14:14:46;7.32;;;3.45;;
25810;SDS011;13645;52.460;13.910;2022-07-18T14:17:13;6.03;;;3.03;;
25810;SDS011;13645;52.460;13.910;2022-07-18T14:19:40;7.25;;;3.05;;
25810;SDS011;13645;52.460;13.910;2022-07-18T14:22:07;6.38;;;3.05;;
25810;SDS011;13645;52.460;13.910;2022-07-18T14:24:36;5.32;;;2.78;;
25810;SDS011;13645;52.460;13.910;2022-07-18T14:27:02;6.22;;;2.75;;
25810;SDS011;13645;52.460;13.910;2022-07-18T14:29:29;6.53;;;3.35;;
25810;SDS011;13645;52.460;13.910;2022-07-18T14:31:56;4.25;;;3.00;;
25810;SDS011;13645;52.460;13.910;2022-07-18T14:34:23;4.13;;;2.78;;
25810;SDS011;13645;52.460;13.910;2022-07-18T14:36:50;4.13;;;2.70;;
25810;SDS011;13645;52.460;13.910;2022-07-18T14:39:16;4.72;;;2.83;;
25810;SDS011;13645;52.460;13.910;2022-07-18T14:41:43;5.88;;;3.00;;
25810;SDS011;13645;52.460;13.910;2022-07-18T14:44:11;8.40;;;2.72;;
25810;SDS011;13645;52.460;13.910;2022-07-18T14:46:38;5.95;;;3.03;;
25810;SDS011;13645;52.460;13.910;2022-07-18T14:49:05;5.47;;;3.28;;
25810;SDS011;13645;52.460;13.910;2022-07-18T14:51:31;8.73;;;3.35;;
25810;SDS011;13645;52.460;13.910;2022-07-18T14:53:59;7.25;;;2.95;;
25810;SDS011;13645;52.460;13.910;2022-07-18T14:56:27;7.25;;;3.30;;
25810;SDS011;13645;52.460;13.910;2022-07-18T14:58:55;6.88;;;3.30;;
25810;SDS011;13645;52.460;13.910;2022-07-18T15:01:22;5.88;;;3.10;;
25810;SDS011;13645;52.460;13.910;2022-07-18T15:03:49;6.03;;;3.50;;
25810;SDS011;13645;52.460;13.910;2022-07-18T15:06:22;7.07;;;3.47;;
25810;SDS011;13645;52.460;13.910;2022-07-18T15:08:48;6.15;;;3.40;;
25810;SDS011;13645;52.460;13.910;2022-07-18T15:11:15;5.20;;;3.42;;
25810;SDS011;13645;52.460;13.910;2022-07-18T15:13:45;7.03;;;3.45;;
25810;SDS011;13645;52.460;13.910;2022-07-18T15:16:12;6.15;;;3.72;;
25810;SDS011;13645;52.460;13.910;2022-07-18T15:18:39;5.32;;;4.10;;
25810;SDS011;13645;52.460;13.910;2022-07-18T15:21:06;4.88;;;3.20;;
25810;SDS011;13645;52.460;13.910;2022-07-18T15:23:32;5.78;;;3.30;;
25810;SDS011;13645;52.460;13.910;2022-07-18T15:25:59;7.50;;;3.70;;
25810;SDS011;13645;52.460;13.910;2022-07-18T15:28:26;4.53;;;3.75;;
25810;SDS011;13645;52.460;13.910;2022-07-18T15:30:53;6.05;;;3.92;;